createdAt,value
2023-06-02T00:03:15.794Z,2.42
2023-06-02T00:08:22.522Z,1.90
2023-06-02T00:13:29.610Z,2.00
2023-06-02T00:18:38.862Z,1.80
2023-06-02T00:23:44.785Z,2.03
2023-06-02T00:28:48.258Z,2.05
2023-06-02T00:33:51.897Z,1.77
2023-06-02T00:38:57.594Z,2.10
2023-06-02T00:44:02.270Z,1.90
2023-06-02T00:49:11.774Z,2.03
2023-06-02T00:54:20.173Z,2.10
2023-06-02T00:59:29.560Z,2.45
2023-06-02T01:04:34.570Z,2.17
2023-06-02T01:09:39.660Z,2.10
2023-06-02T01:14:43.448Z,2.08
2023-06-02T01:19:50.605Z,2.30
2023-06-02T01:25:18.102Z,2.10
2023-06-02T01:30:22.132Z,1.92
2023-06-02T01:35:30.272Z,2.13
2023-06-02T01:40:35.578Z,2.22
2023-06-02T01:45:43.133Z,1.98
2023-06-02T01:50:46.699Z,2.40
2023-06-02T01:55:51.548Z,2.13
2023-06-02T02:00:57.671Z,2.15
2023-06-02T02:06:02.648Z,2.53
2023-06-02T02:11:08.733Z,2.33
2023-06-02T02:22:29.385Z,2.10
2023-06-02T02:27:36.661Z,1.95
2023-06-02T02:32:48.246Z,2.50
2023-06-02T02:37:53.962Z,2.30
2023-06-02T02:42:58.890Z,2.50
2023-06-02T02:48:03.313Z,2.03
2023-06-02T02:53:06.848Z,3.00
2023-06-02T02:58:20.051Z,2.50
2023-06-02T03:03:24.598Z,2.35
2023-06-02T03:08:29.246Z,2.47
2023-06-02T03:13:34.302Z,2.88
2023-06-02T03:18:38.096Z,2.72
2023-06-02T03:23:42.186Z,3.20
2023-06-02T03:28:47.278Z,2.85
2023-06-02T03:33:52.928Z,2.80
2023-06-02T03:38:56.691Z,2.97
2023-06-02T03:44:02.359Z,2.80
2023-06-02T03:49:05.885Z,3.17
2023-06-02T03:54:09.279Z,2.80
2023-06-02T03:59:14.160Z,2.85
2023-06-02T04:04:18.709Z,2.80
2023-06-02T04:09:23.179Z,3.30
2023-06-02T04:14:28.891Z,2.88
2023-06-02T04:19:32.503Z,2.90
2023-06-02T04:24:38.586Z,3.50
2023-06-02T04:29:45.029Z,2.80
2023-06-02T04:34:57.006Z,2.70
2023-06-02T04:40:08.431Z,3.20
2023-06-02T04:45:25.353Z,3.10
2023-06-02T04:50:37.969Z,3.10
2023-06-02T04:55:51.350Z,2.78
2023-06-02T05:01:10.113Z,3.28
2023-06-02T05:06:30.388Z,3.13
2023-06-02T05:11:38.609Z,2.97
2023-06-02T05:16:51.036Z,3.35
2023-06-02T05:21:57.753Z,3.53
2023-06-02T05:27:10.550Z,3.38
2023-06-02T05:32:31.493Z,3.63
2023-06-02T05:37:41.521Z,3.88
2023-06-02T05:42:46.828Z,3.45
2023-06-02T05:47:52.959Z,3.40
2023-06-02T05:52:59.088Z,3.17
2023-06-02T05:58:12.794Z,3.90
2023-06-02T06:03:18.986Z,4.55
2023-06-02T06:08:23.960Z,4.03
2023-06-02T06:13:30.187Z,3.85
2023-06-02T06:18:36.912Z,4.10
2023-06-02T06:23:42.567Z,4.30
2023-06-02T06:28:46.361Z,4.28
2023-06-02T06:33:51.437Z,4.38
2023-06-02T06:39:00.665Z,5.07
2023-06-02T06:44:04.232Z,4.55
2023-06-02T06:49:09.175Z,4.03
2023-06-02T06:54:13.938Z,4.40
2023-06-02T06:59:20.604Z,4.05
2023-06-02T07:04:29.063Z,4.60
2023-06-02T07:09:33.526Z,3.70
2023-06-02T07:20:11.979Z,3.83
2023-06-02T07:25:15.526Z,4.38
2023-06-02T07:30:23.048Z,4.65
2023-06-02T07:35:27.854Z,4.15
2023-06-02T07:40:31.394Z,4.32
2023-06-02T07:45:38.893Z,5.18
2023-06-02T07:50:43.602Z,4.78
2023-06-02T07:55:47.168Z,5.03
2023-06-02T08:06:20.453Z,4.85
2023-06-02T08:11:26.511Z,5.03
2023-06-02T08:16:38.539Z,5.05
2023-06-02T08:21:49.264Z,5.57
2023-06-02T08:26:53.564Z,5.43
2023-06-02T08:37:26.503Z,5.28
2023-06-02T08:42:29.900Z,5.15
2023-06-02T08:47:36.259Z,5.57
2023-06-02T08:52:48.081Z,5.13
2023-06-02T08:57:53.894Z,5.40
2023-06-02T09:02:58.366Z,5.40
2023-06-02T09:08:14.331Z,6.15
2023-06-02T09:13:31.558Z,5.03
2023-06-02T09:18:34.922Z,6.00
2023-06-02T09:23:56.668Z,6.25
2023-06-02T09:29:10.492Z,4.93
2023-06-02T09:34:16.508Z,5.40
2023-06-02T09:39:37.197Z,5.75
2023-06-02T09:44:40.987Z,5.35
2023-06-02T09:55:14.321Z,4.97
2023-06-02T10:00:19.229Z,5.03
2023-06-02T10:05:23.955Z,4.60
2023-06-02T10:10:40.632Z,4.70
2023-06-02T10:16:19.458Z,5.32
2023-06-02T10:21:32.698Z,4.97
2023-06-02T10:26:59.153Z,5.47
2023-06-02T10:32:03.469Z,4.93
2023-06-02T10:37:21.496Z,5.45
2023-06-02T10:42:27.638Z,5.72
2023-06-02T10:47:42.292Z,4.72
2023-06-02T10:53:12.365Z,4.85
2023-06-02T10:58:17.261Z,5.03
2023-06-02T11:03:44.714Z,5.47
2023-06-02T11:08:56.250Z,5.25
2023-06-02T11:14:06.851Z,5.20
2023-06-02T11:19:11.323Z,4.35
2023-06-02T11:24:23.840Z,5.47
2023-06-02T11:29:31.291Z,5.15
2023-06-02T11:34:36.312Z,4.80
2023-06-02T11:39:54.814Z,5.20
2023-06-02T11:45:00.760Z,4.72
2023-06-02T11:50:05.454Z,4.75
2023-06-02T11:55:12.094Z,4.75
2023-06-02T12:00:26.296Z,4.63
2023-06-02T12:05:38.754Z,4.28
2023-06-02T12:10:46.322Z,4.25
2023-06-02T12:15:52.073Z,4.10
2023-06-02T12:21:02.407Z,4.70
2023-06-02T12:26:06.799Z,4.70
2023-06-02T12:31:11.714Z,4.82
2023-06-02T12:36:15.680Z,3.75
2023-06-02T12:41:43.490Z,4.25
2023-06-02T12:46:50.892Z,4.50
2023-06-02T12:51:56.030Z,4.32
2023-06-02T12:57:02.377Z,3.53
2023-06-02T13:02:10.021Z,3.78
2023-06-02T13:07:13.500Z,4.10
2023-06-02T13:12:18.499Z,3.47
2023-06-02T13:17:25.517Z,4.05
2023-06-02T13:22:31.939Z,4.20
2023-06-02T13:32:46.447Z,3.67
2023-06-02T13:37:49.957Z,3.75
2023-06-02T13:42:55.595Z,4.43
2023-06-02T13:48:04.237Z,3.90
2023-06-02T13:53:08.123Z,3.95
2023-06-02T13:58:13.676Z,3.83
2023-06-02T14:03:19.203Z,3.72
2023-06-02T14:08:22.980Z,3.22
2023-06-02T14:13:27.940Z,4.03
2023-06-02T14:18:32.727Z,4.00
2023-06-02T14:23:36.238Z,4.18
2023-06-02T14:28:41.069Z,3.63
2023-06-02T14:33:45.983Z,3.58
2023-06-02T14:38:53.816Z,3.55
2023-06-02T14:43:58.303Z,3.25
2023-06-02T14:49:05.860Z,3.83
2023-06-02T14:54:10.216Z,3.95
2023-06-02T14:59:21.769Z,3.90
2023-06-02T15:04:26.764Z,3.63
2023-06-02T15:09:30.198Z,3.30
2023-06-02T15:14:33.652Z,3.25
2023-06-02T15:19:38.604Z,3.38
2023-06-02T15:24:44.615Z,3.85
2023-06-02T15:29:53.129Z,3.55
2023-06-02T15:34:58.199Z,3.58
2023-06-02T15:40:02.781Z,3.67
2023-06-02T15:45:07.163Z,3.42
2023-06-02T15:50:12.620Z,3.42
2023-06-02T15:55:16.218Z,3.45
2023-06-02T16:00:22.554Z,3.33
2023-06-02T16:05:28.838Z,3.08
2023-06-02T16:10:32.311Z,3.03
2023-06-02T16:15:35.751Z,3.38
2023-06-02T16:20:40.571Z,3.25
2023-06-02T16:25:44.178Z,3.42
2023-06-02T16:30:48.681Z,3.20
2023-06-02T16:35:53.396Z,3.03
2023-06-02T16:40:56.930Z,3.75
2023-06-02T16:46:00.782Z,2.75
2023-06-02T16:51:07.216Z,3.80
2023-06-02T16:56:11.156Z,3.38
2023-06-02T17:01:14.764Z,2.92
2023-06-02T17:06:26.411Z,3.05
2023-06-02T17:11:31.861Z,4.28
2023-06-02T17:16:35.679Z,2.97
2023-06-02T17:21:40.673Z,3.20
2023-06-02T17:27:04.168Z,2.63
2023-06-02T17:32:15.370Z,3.17
2023-06-02T17:37:31.858Z,2.85
2023-06-02T17:42:43.372Z,2.72
2023-06-02T17:47:48.431Z,2.53
2023-06-02T17:52:53.613Z,2.53
2023-06-02T17:57:59.510Z,2.75
2023-06-02T18:03:06.153Z,2.42
2023-06-02T18:08:12.818Z,2.67
2023-06-02T18:13:16.385Z,3.00
2023-06-02T18:18:20.431Z,2.42
2023-06-02T18:23:25.417Z,2.78
2023-06-02T18:28:29.896Z,2.78
2023-06-02T18:33:34.199Z,2.65
2023-06-02T18:38:43.808Z,2.55
2023-06-02T18:43:47.504Z,2.63
2023-06-02T18:48:51.051Z,2.13
2023-06-02T18:53:56.171Z,2.40
2023-06-02T18:58:59.831Z,2.00
2023-06-02T19:04:08.082Z,2.75
2023-06-02T19:09:13.115Z,2.60
2023-06-02T19:14:17.899Z,2.30
2023-06-02T19:19:22.477Z,2.40
2023-06-02T19:24:29.525Z,2.40
2023-06-02T19:29:34.159Z,2.40
2023-06-02T19:34:43.708Z,2.25
2023-06-02T19:39:51.915Z,2.17
2023-06-02T19:44:55.312Z,2.33
2023-06-02T19:49:59.012Z,2.78
2023-06-02T19:55:06.071Z,2.40
2023-06-02T20:00:15.033Z,2.47
2023-06-02T20:05:22.469Z,2.60
2023-06-02T20:10:28.034Z,2.75
2023-06-02T20:15:39.463Z,2.35
2023-06-02T20:20:44.217Z,2.55
2023-06-02T20:25:49.384Z,2.53
2023-06-02T20:31:11.000Z,2.65
2023-06-02T20:36:14.612Z,2.47
2023-06-02T20:41:22.892Z,2.15
2023-06-02T20:46:27.708Z,3.00
2023-06-02T20:51:32.003Z,2.40
2023-06-02T20:56:37.992Z,2.45
2023-06-02T21:01:42.879Z,2.85
2023-06-02T21:06:47.715Z,2.30
2023-06-02T21:11:53.692Z,2.60
2023-06-02T21:17:00.342Z,2.50
2023-06-02T21:22:04.419Z,2.80
2023-06-02T21:27:54.574Z,2.88
2023-06-02T21:39:26.365Z,2.90
2023-06-02T21:44:36.451Z,2.15
2023-06-02T21:49:45.809Z,2.60
2023-06-02T21:55:14.980Z,2.55
2023-06-02T22:00:33.888Z,2.53
2023-06-02T22:11:24.626Z,2.10
2023-06-02T22:17:08.436Z,2.22
2023-06-02T22:32:45.398Z,2.00
2023-06-02T22:38:05.144Z,2.47
2023-06-02T22:43:08.910Z,2.20
2023-06-02T22:48:14.697Z,2.30
2023-06-02T22:53:26.509Z,2.45
2023-06-02T22:58:31.628Z,2.38
2023-06-02T23:03:37.146Z,2.40
2023-06-02T23:08:41.731Z,2.08
2023-06-02T23:13:46.342Z,2.60
2023-06-02T23:18:51.291Z,1.90
2023-06-02T23:23:56.121Z,2.70
2023-06-02T23:28:59.515Z,2.45
2023-06-02T23:34:04.766Z,3.08
2023-06-02T23:39:09.503Z,3.08
2023-06-02T23:44:15.131Z,2.70
2023-06-02T23:49:21.921Z,2.80
2023-06-02T23:54:27.989Z,2.65
2023-06-02T23:59:32.304Z,2.50
